createdAt,value
2023-01-23T00:01:30.296Z,4.10
2023-01-23T00:03:58.351Z,3.87
2023-01-23T00:06:25.927Z,3.70
2023-01-23T00:08:53.441Z,3.67
2023-01-23T00:11:24.465Z,3.50
2023-01-23T00:13:53.033Z,3.97
2023-01-23T00:16:25.488Z,4.00
2023-01-23T00:18:53.093Z,4.07
2023-01-23T00:21:24.171Z,4.20
2023-01-23T00:23:55.849Z,4.00
2023-01-23T00:26:29.826Z,3.93
2023-01-23T00:28:57.254Z,3.90
2023-01-23T00:31:34.564Z,3.93
2023-01-23T00:34:08.471Z,4.07
2023-01-23T00:36:39.302Z,3.60
2023-01-23T00:39:23.067Z,3.80
2023-01-23T00:41:50.621Z,4.17
2023-01-23T00:44:18.384Z,3.40
2023-01-23T00:46:45.904Z,3.60
2023-01-23T00:49:13.489Z,3.80
2023-01-23T00:51:40.896Z,4.00
2023-01-23T00:54:08.204Z,4.07
2023-01-23T00:56:35.615Z,4.03
2023-01-23T00:59:03.584Z,3.90
2023-01-23T01:01:31.171Z,4.03
2023-01-23T01:04:02.828Z,4.30
2023-01-23T01:06:30.357Z,3.90
2023-01-23T01:08:58.987Z,3.50
2023-01-23T01:11:26.589Z,3.67
2023-01-23T01:13:54.231Z,3.90
2023-01-23T01:16:21.628Z,3.67
2023-01-23T01:18:48.899Z,3.60
2023-01-23T01:21:17.476Z,4.30
2023-01-23T01:23:44.998Z,4.00
2023-01-23T01:26:12.891Z,3.53
2023-01-23T01:28:41.470Z,3.70
2023-01-23T01:31:15.548Z,3.90
2023-01-23T01:33:44.214Z,4.10
2023-01-23T01:36:16.216Z,3.70
2023-01-23T01:38:44.098Z,3.77
2023-01-23T01:41:11.841Z,4.07
2023-01-23T01:43:39.751Z,3.63
2023-01-23T01:46:24.130Z,4.13
2023-01-23T01:49:15.743Z,3.60
2023-01-23T01:52:12.810Z,3.67
2023-01-23T01:54:56.085Z,4.10
2023-01-23T01:57:30.610Z,3.57
2023-01-23T02:00:09.839Z,3.90
2023-01-23T02:02:40.829Z,4.03
2023-01-23T02:05:16.058Z,3.90
2023-01-23T02:08:07.469Z,3.90
2023-01-23T02:10:34.971Z,3.83
2023-01-23T02:13:30.778Z,4.03
2023-01-23T02:16:02.336Z,4.13
2023-01-23T02:18:32.479Z,3.63
2023-01-23T02:21:08.168Z,4.30
2023-01-23T02:24:09.038Z,4.00
2023-01-23T02:26:42.815Z,4.40
2023-01-23T02:29:11.711Z,3.97
2023-01-23T02:31:39.324Z,3.97
2023-01-23T02:34:06.663Z,4.17
2023-01-23T02:36:35.423Z,4.17
2023-01-23T02:39:07.999Z,4.07
2023-01-23T02:41:39.662Z,4.40
2023-01-23T02:44:24.898Z,4.27
2023-01-23T02:46:52.592Z,4.60
2023-01-23T02:49:20.290Z,4.10
2023-01-23T02:51:50.841Z,4.80
2023-01-23T02:54:18.341Z,5.60
2023-01-23T02:56:46.312Z,4.53
2023-01-23T02:59:13.640Z,4.90
2023-01-23T03:01:40.903Z,4.53
2023-01-23T03:04:08.179Z,4.73
2023-01-23T03:06:37.462Z,4.17
2023-01-23T03:09:12.399Z,3.97
2023-01-23T03:11:42.825Z,3.90
2023-01-23T03:14:17.474Z,4.50
2023-01-23T03:16:45.508Z,5.63
2023-01-23T03:19:13.064Z,4.80
2023-01-23T03:21:41.257Z,4.43
2023-01-23T03:24:14.175Z,5.10
2023-01-23T03:26:47.733Z,4.43
2023-01-23T03:29:25.144Z,4.50
2023-01-23T03:31:53.021Z,4.73
2023-01-23T03:34:20.445Z,4.57
2023-01-23T03:36:47.884Z,4.60
2023-01-23T03:39:15.153Z,4.77
2023-01-23T03:41:42.374Z,5.27
2023-01-23T03:44:09.730Z,4.70
2023-01-23T03:46:36.932Z,4.83
2023-01-23T03:49:04.189Z,4.80
2023-01-23T03:51:31.669Z,4.53
2023-01-23T03:53:58.835Z,4.87
2023-01-23T03:56:26.118Z,5.03
2023-01-23T03:58:53.415Z,4.67
2023-01-23T04:01:20.657Z,4.40
2023-01-23T04:03:47.902Z,4.40
2023-01-23T04:06:15.120Z,5.07
2023-01-23T04:08:42.270Z,7.43
2023-01-23T04:11:11.753Z,7.93
2023-01-23T04:13:40.009Z,5.40
2023-01-23T04:16:08.235Z,7.97
2023-01-23T04:18:35.530Z,4.97
2023-01-23T04:21:02.955Z,5.37
2023-01-23T04:23:30.322Z,6.87
2023-01-23T04:25:58.225Z,5.37
2023-01-23T04:28:25.634Z,6.60
2023-01-23T04:30:54.083Z,5.67
2023-01-23T04:33:21.683Z,5.80
2023-01-23T04:35:56.181Z,5.60
2023-01-23T04:38:26.056Z,5.07
2023-01-23T04:40:54.108Z,5.60
2023-01-23T04:43:21.433Z,8.70
2023-01-23T04:45:52.640Z,9.27
2023-01-23T04:48:20.186Z,8.03
2023-01-23T04:50:49.254Z,8.27
2023-01-23T04:53:17.062Z,6.83
2023-01-23T04:55:48.279Z,7.43
2023-01-23T04:58:18.114Z,7.50
2023-01-23T05:00:46.461Z,6.73
2023-01-23T05:03:15.763Z,6.47
2023-01-23T05:05:43.647Z,5.93
2023-01-23T05:08:12.539Z,5.43
2023-01-23T05:10:39.970Z,6.70
2023-01-23T05:13:07.358Z,6.13
2023-01-23T05:15:34.645Z,6.53
2023-01-23T05:18:02.236Z,5.60
2023-01-23T05:20:29.487Z,5.10
2023-01-23T05:22:58.469Z,5.70
2023-01-23T05:25:29.094Z,5.13
2023-01-23T05:27:56.496Z,5.13
2023-01-23T05:30:24.146Z,5.10
2023-01-23T05:32:51.571Z,6.57
2023-01-23T05:35:18.956Z,4.90
2023-01-23T05:37:51.536Z,36.03
2023-01-23T05:40:20.839Z,6.00
2023-01-23T05:42:49.283Z,6.87
2023-01-23T05:45:17.175Z,11.70
2023-01-23T05:47:44.963Z,7.13
2023-01-23T05:50:20.663Z,7.43
2023-01-23T05:52:48.106Z,6.53
2023-01-23T05:55:15.684Z,7.00
2023-01-23T05:57:43.148Z,6.83
2023-01-23T06:00:14.702Z,7.00
2023-01-23T06:02:42.702Z,7.20
2023-01-23T06:05:11.185Z,9.53
2023-01-23T06:07:38.817Z,9.10
2023-01-23T06:10:09.861Z,7.77
2023-01-23T06:12:37.412Z,6.53
2023-01-23T06:15:05.947Z,6.47
2023-01-23T06:17:33.426Z,7.67
2023-01-23T06:20:00.711Z,8.00
2023-01-23T06:22:29.052Z,7.17
2023-01-23T06:24:57.591Z,6.40
2023-01-23T06:27:24.929Z,7.27
2023-01-23T06:29:52.221Z,7.30
2023-01-23T06:32:19.493Z,7.00
2023-01-23T06:34:46.658Z,7.07
2023-01-23T06:37:14.158Z,7.73
2023-01-23T06:39:41.416Z,6.90
2023-01-23T06:42:09.996Z,7.47
2023-01-23T06:44:38.620Z,7.80
2023-01-23T06:47:06.280Z,8.63
2023-01-23T06:49:33.652Z,12.80
2023-01-23T06:52:00.782Z,12.20
2023-01-23T06:54:28.447Z,11.23
2023-01-23T06:56:55.634Z,9.90
2023-01-23T06:59:23.135Z,10.40
2023-01-23T07:01:50.725Z,22.10
2023-01-23T07:04:18.095Z,22.53
2023-01-23T07:06:45.549Z,20.53
2023-01-23T07:09:13.064Z,14.37
2023-01-23T07:11:40.626Z,15.57
2023-01-23T07:14:07.845Z,13.13
2023-01-23T07:16:35.088Z,14.20
2023-01-23T07:19:03.031Z,14.23
2023-01-23T07:21:30.296Z,9.00
2023-01-23T07:23:57.741Z,9.80
2023-01-23T07:26:24.951Z,12.00
2023-01-23T07:28:52.194Z,11.07
2023-01-23T07:31:19.790Z,19.77
2023-01-23T07:33:47.201Z,16.17
2023-01-23T07:36:14.402Z,19.67
2023-01-23T07:38:41.952Z,29.13
2023-01-23T07:41:09.718Z,29.27
2023-01-23T07:43:37.056Z,22.13
2023-01-23T07:46:04.459Z,17.17
2023-01-23T07:48:31.542Z,15.93
2023-01-23T07:51:02.875Z,14.53
2023-01-23T07:53:30.202Z,15.90
2023-01-23T07:55:57.625Z,11.37
2023-01-23T07:58:24.965Z,10.67
2023-01-23T08:00:52.156Z,12.37
2023-01-23T08:03:19.395Z,20.00
2023-01-23T08:05:50.650Z,12.47
2023-01-23T08:08:17.790Z,14.87
2023-01-23T08:10:45.049Z,13.60
2023-01-23T08:13:12.833Z,10.13
2023-01-23T08:15:39.995Z,9.70
2023-01-23T08:18:07.361Z,9.60
2023-01-23T08:20:34.707Z,9.10
2023-01-23T08:23:02.071Z,10.20
2023-01-23T08:25:29.712Z,10.63
2023-01-23T08:27:57.039Z,10.73
2023-01-23T08:30:24.348Z,10.00
2023-01-23T08:32:51.607Z,10.93
2023-01-23T08:35:18.798Z,8.70
2023-01-23T08:37:46.044Z,9.33
2023-01-23T08:40:13.592Z,9.20
2023-01-23T08:42:40.741Z,9.80
2023-01-23T08:45:08.887Z,10.33
2023-01-23T08:47:36.273Z,9.57
2023-01-23T08:50:05.596Z,9.13
2023-01-23T08:52:33.023Z,8.87
2023-01-23T08:55:00.408Z,10.27
2023-01-23T08:57:27.491Z,10.70
2023-01-23T08:59:54.723Z,10.57
2023-01-23T09:02:21.961Z,10.23
2023-01-23T09:04:50.115Z,12.07
2023-01-23T09:07:17.654Z,12.03
2023-01-23T09:09:44.882Z,12.87
2023-01-23T09:12:12.057Z,14.60
2023-01-23T09:14:39.545Z,13.13
2023-01-23T09:17:06.861Z,12.10
2023-01-23T09:19:34.447Z,11.27
2023-01-23T09:22:01.865Z,10.93
2023-01-23T09:24:29.192Z,11.70
2023-01-23T09:26:56.590Z,11.13
2023-01-23T09:29:23.815Z,10.43
2023-01-23T09:31:51.016Z,11.73
2023-01-23T09:34:18.481Z,10.33
2023-01-23T09:36:45.715Z,12.23
2023-01-23T09:39:12.978Z,14.00
2023-01-23T09:41:43.668Z,11.17
2023-01-23T09:44:38.493Z,12.17
2023-01-23T09:47:33.301Z,12.07
2023-01-23T09:50:19.493Z,11.57
2023-01-23T09:52:55.571Z,10.30
2023-01-23T09:55:47.444Z,8.20
2023-01-23T09:58:37.316Z,8.17
2023-01-23T10:01:04.792Z,8.50
2023-01-23T10:03:33.005Z,9.33
2023-01-23T10:06:19.637Z,9.47
2023-01-23T10:09:21.510Z,14.97
2023-01-23T10:12:17.237Z,12.63
2023-01-23T10:15:18.163Z,11.73
2023-01-23T10:18:08.397Z,11.77
2023-01-23T10:21:12.153Z,10.53
2023-01-23T10:24:02.519Z,9.53
2023-01-23T10:26:43.598Z,11.37
2023-01-23T10:29:34.810Z,11.00
2023-01-23T10:32:03.439Z,11.77
2023-01-23T10:35:12.741Z,10.57
2023-01-23T10:38:13.887Z,8.53
2023-01-23T10:40:41.727Z,11.67
2023-01-23T10:43:18.633Z,11.40
2023-01-23T10:45:49.292Z,11.60
2023-01-23T10:48:35.223Z,12.30
2023-01-23T10:51:02.602Z,10.17
2023-01-23T10:53:29.924Z,10.80
2023-01-23T10:56:01.362Z,10.20
2023-01-23T10:58:37.646Z,11.70
2023-01-23T11:01:18.527Z,12.23
2023-01-23T11:03:46.599Z,11.53
2023-01-23T11:06:20.737Z,8.30
2023-01-23T11:09:01.251Z,7.67
2023-01-23T11:11:31.779Z,11.00
2023-01-23T11:14:21.251Z,10.83
2023-01-23T11:17:13.972Z,9.17
2023-01-23T11:19:43.865Z,8.00
2023-01-23T11:22:33.011Z,6.33
2023-01-23T11:25:17.864Z,5.83
2023-01-23T11:28:02.332Z,7.80
2023-01-23T11:30:45.017Z,11.70
2023-01-23T11:34:00.638Z,16.47
2023-01-23T11:36:40.903Z,15.80
2023-01-23T11:39:41.070Z,13.37
2023-01-23T11:42:13.634Z,15.77
2023-01-23T11:44:46.390Z,20.77
2023-01-23T11:48:00.561Z,18.67
2023-01-23T11:50:55.805Z,17.73
2023-01-23T11:53:42.438Z,15.37
2023-01-23T11:56:34.838Z,20.77
2023-01-23T11:59:35.893Z,17.17
2023-01-23T12:02:47.039Z,37.27
2023-01-23T12:05:28.313Z,17.80
2023-01-23T12:08:31.306Z,13.83
2023-01-23T12:11:13.628Z,12.63
2023-01-23T12:14:15.865Z,11.03
2023-01-23T12:17:35.100Z,8.43
2023-01-23T12:20:33.442Z,8.97
2023-01-23T12:23:45.124Z,10.40
2023-01-23T12:26:22.841Z,8.50
2023-01-23T12:29:16.583Z,8.97
2023-01-23T12:32:22.257Z,8.80
2023-01-23T12:35:05.305Z,8.67
2023-01-23T12:37:45.199Z,9.27
2023-01-23T12:40:25.292Z,10.20
2023-01-23T12:43:18.085Z,7.67
2023-01-23T12:45:57.916Z,5.70
2023-01-23T12:48:35.176Z,6.37
2023-01-23T12:51:26.993Z,6.80
2023-01-23T12:54:00.685Z,6.10
2023-01-23T12:56:34.122Z,6.20
2023-01-23T12:59:21.977Z,14.43
2023-01-23T13:02:22.007Z,7.30
2023-01-23T13:05:19.807Z,5.90
2023-01-23T13:08:03.228Z,6.40
2023-01-23T13:11:04.248Z,6.17
2023-01-23T13:13:32.760Z,5.77
2023-01-23T13:16:18.592Z,8.57
2023-01-23T13:18:54.760Z,8.87
2023-01-23T13:21:22.511Z,8.67
2023-01-23T13:23:49.914Z,15.27
2023-01-23T13:26:17.170Z,7.97
2023-01-23T13:28:48.270Z,7.70
2023-01-23T13:31:48.062Z,7.03
2023-01-23T13:34:18.271Z,5.90
2023-01-23T13:36:50.268Z,11.10
2023-01-23T13:39:17.501Z,12.70
2023-01-23T13:42:07.107Z,12.10
2023-01-23T13:44:41.594Z,6.67
2023-01-23T14:24:27.953Z,6.60
2023-01-23T14:27:09.578Z,6.50
2023-01-23T14:29:37.859Z,5.23
2023-01-23T14:32:05.223Z,6.47
2023-01-23T14:34:39.790Z,7.77
2023-01-23T14:37:12.376Z,8.00
2023-01-23T14:39:42.419Z,6.43
2023-01-23T14:42:26.485Z,6.40
2023-01-23T14:44:56.727Z,9.30
2023-01-23T14:47:48.912Z,8.53
2023-01-23T14:50:26.072Z,6.80
2023-01-23T14:53:02.161Z,9.37
2023-01-23T14:55:33.045Z,9.60
2023-01-23T14:58:03.773Z,7.90
2023-01-23T15:00:32.077Z,6.83
2023-01-23T15:02:59.349Z,5.60
2023-01-23T15:05:28.779Z,5.70
2023-01-23T15:08:18.236Z,6.13
2023-01-23T15:10:50.617Z,7.97
2023-01-23T15:13:28.802Z,9.37
2023-01-23T15:16:01.049Z,6.60
2023-01-23T15:18:33.358Z,6.67
2023-01-23T15:21:09.504Z,11.20
2023-01-23T15:23:39.482Z,9.37
2023-01-23T15:26:18.706Z,7.27
2023-01-23T15:28:53.559Z,7.03
2023-01-23T15:31:41.617Z,6.43
2023-01-23T15:34:15.143Z,7.20
2023-01-23T15:37:04.083Z,8.27
2023-01-23T15:39:35.362Z,9.83
2023-01-23T15:42:13.781Z,14.87
2023-01-23T15:44:42.881Z,16.83
2023-01-23T15:47:10.619Z,17.30
2023-01-23T15:49:40.417Z,10.70
2023-01-23T15:52:24.467Z,7.90
2023-01-23T15:55:05.209Z,8.50
2023-01-23T15:57:32.406Z,9.47
2023-01-23T15:59:59.654Z,9.43
2023-01-23T16:02:32.342Z,8.50
2023-01-23T16:05:01.246Z,9.07
2023-01-23T16:07:39.514Z,8.27
2023-01-23T16:10:25.034Z,7.80
2023-01-23T16:12:55.423Z,9.80
2023-01-23T16:15:27.783Z,11.67
2023-01-23T16:17:55.772Z,12.80
2023-01-23T16:20:28.247Z,9.67
2023-01-23T16:23:11.606Z,6.00
2023-01-23T16:25:44.512Z,5.77
2023-01-23T16:28:24.898Z,6.60
2023-01-23T16:30:53.004Z,6.47
2023-01-23T16:33:21.567Z,6.23
2023-01-23T16:35:51.655Z,7.87
2023-01-23T16:38:26.203Z,8.00
2023-01-23T16:40:55.662Z,15.40
2023-01-23T16:43:23.642Z,20.47
2023-01-23T16:45:51.231Z,24.07
2023-01-23T16:48:27.143Z,23.23
2023-01-23T16:51:08.121Z,29.37
2023-01-23T16:53:42.942Z,30.53
2023-01-23T16:56:27.874Z,24.33
2023-01-23T16:58:55.257Z,17.60
2023-01-23T17:01:24.052Z,13.67
2023-01-23T17:04:01.635Z,11.43
2023-01-23T17:06:28.861Z,19.90
2023-01-23T17:08:56.453Z,25.33
2023-01-23T17:11:55.667Z,14.87
2023-01-23T17:14:30.873Z,11.77
2023-01-23T17:17:09.972Z,12.97
2023-01-23T17:19:41.122Z,11.70
2023-01-23T17:22:22.332Z,14.00
2023-01-23T17:24:50.930Z,15.83
2023-01-23T17:27:18.184Z,14.37
2023-01-23T17:29:45.505Z,14.23
2023-01-23T17:32:31.073Z,12.87
2023-01-23T17:35:02.983Z,13.60
2023-01-23T17:37:31.009Z,12.27
2023-01-23T17:39:58.179Z,11.87
2023-01-23T17:42:25.393Z,11.60
2023-01-23T17:44:52.701Z,12.53
2023-01-23T17:47:20.091Z,12.30
2023-01-23T17:49:52.911Z,10.80
2023-01-23T17:52:20.175Z,12.20
2023-01-23T17:54:48.749Z,12.60
2023-01-23T17:57:16.409Z,11.17
2023-01-23T17:59:43.595Z,11.73
2023-01-23T18:02:27.815Z,13.13
2023-01-23T18:04:56.619Z,19.33
2023-01-23T18:07:24.255Z,15.17
2023-01-23T18:09:51.541Z,16.57
2023-01-23T18:12:54.870Z,14.40
2023-01-23T18:15:43.083Z,14.43
2023-01-23T18:18:36.007Z,12.70
2023-01-23T18:21:06.840Z,10.23
2023-01-23T18:23:37.108Z,10.87
2023-01-23T18:26:57.223Z,11.83
2023-01-23T18:29:46.994Z,10.97
2023-01-23T18:32:44.969Z,11.33
2023-01-23T18:35:52.209Z,13.60
2023-01-23T18:38:54.496Z,11.67
2023-01-23T18:41:25.301Z,10.20
2023-01-23T18:44:24.822Z,9.57
2023-01-23T18:46:52.583Z,12.40
2023-01-23T18:49:32.401Z,10.00
2023-01-23T18:52:40.034Z,9.90
2023-01-23T18:55:38.191Z,6.77
2023-01-23T18:58:35.734Z,7.23
2023-01-23T19:01:22.528Z,8.30
2023-01-23T19:03:51.030Z,9.30
2023-01-23T19:06:24.105Z,11.23
2023-01-23T19:08:54.594Z,9.73
2023-01-23T19:11:49.030Z,9.97
2023-01-23T19:15:16.338Z,9.90
2023-01-23T19:17:58.320Z,8.47
2023-01-23T19:21:00.166Z,8.70
2023-01-23T19:23:41.817Z,7.40
2023-01-23T19:26:17.938Z,7.10
2023-01-23T19:28:45.469Z,5.87
2023-01-23T19:31:26.227Z,6.37
2023-01-23T19:33:54.871Z,6.17
2023-01-23T19:36:24.059Z,5.80
2023-01-23T19:38:51.826Z,5.50
2023-01-23T19:41:47.136Z,5.23
2023-01-23T19:44:20.107Z,5.90
2023-01-23T19:46:47.464Z,5.43
2023-01-23T19:49:14.884Z,5.60
2023-01-23T19:51:43.049Z,5.60
2023-01-23T19:54:15.445Z,5.93
2023-01-23T19:56:43.061Z,4.60
2023-01-23T19:59:10.565Z,5.07
2023-01-23T20:01:46.075Z,5.53
2023-01-23T20:04:17.682Z,4.33
2023-01-23T20:06:45.679Z,4.50
2023-01-23T20:09:13.705Z,3.77
2023-01-23T20:11:42.589Z,4.27
2023-01-23T20:14:09.827Z,3.30
2023-01-23T20:16:37.388Z,2.77
2023-01-23T20:19:04.985Z,3.10
2023-01-23T20:21:32.202Z,3.37
2023-01-23T20:23:59.813Z,3.80
2023-01-23T20:26:27.456Z,3.37
2023-01-23T20:28:54.747Z,3.30
2023-01-23T20:31:23.058Z,3.20
2023-01-23T20:33:50.710Z,2.83
2023-01-23T20:36:18.187Z,3.27
2023-01-23T20:38:45.598Z,3.33
2023-01-23T20:41:19.207Z,2.83
2023-01-23T20:43:47.763Z,2.20
2023-01-23T20:46:16.837Z,2.70
2023-01-23T20:48:45.508Z,2.33
2023-01-23T20:51:16.157Z,3.03
2023-01-23T20:53:44.586Z,2.80
2023-01-23T20:56:20.838Z,2.60
2023-01-23T20:58:49.805Z,2.83
2023-01-23T21:01:20.300Z,2.90
2023-01-23T21:03:51.819Z,3.13
2023-01-23T21:06:19.953Z,2.70
2023-01-23T21:08:47.712Z,2.60
2023-01-23T21:11:19.560Z,2.53
2023-01-23T21:13:52.269Z,3.13
2023-01-23T21:16:21.067Z,2.73
2023-01-23T21:18:48.270Z,2.83
2023-01-23T21:21:18.944Z,3.10
2023-01-23T21:23:47.113Z,2.53
2023-01-23T21:26:18.589Z,2.90
2023-01-23T21:28:48.811Z,2.73
2023-01-23T21:31:26.370Z,3.10
2023-01-23T21:33:55.042Z,2.90
2023-01-23T21:36:25.109Z,2.80
2023-01-23T21:38:53.449Z,3.03
2023-01-23T21:41:22.219Z,2.80
2023-01-23T21:43:50.001Z,2.40
2023-01-23T21:46:17.858Z,2.63
2023-01-23T21:48:45.138Z,2.63
2023-01-23T21:51:22.313Z,2.30
2023-01-23T21:53:51.363Z,2.23
2023-01-23T21:56:22.028Z,2.50
2023-01-23T21:58:50.312Z,2.47
2023-01-23T22:01:24.327Z,2.70
2023-01-23T22:03:52.676Z,2.30
2023-01-23T22:06:20.246Z,2.40
2023-01-23T22:08:48.001Z,3.10
2023-01-23T22:11:15.290Z,2.77
2023-01-23T22:13:42.775Z,2.83
2023-01-23T22:16:10.343Z,2.53
2023-01-23T22:18:37.907Z,2.30
2023-01-23T22:21:06.616Z,2.60
2023-01-23T22:23:34.896Z,2.70
2023-01-23T22:26:08.815Z,2.60
2023-01-23T22:28:36.754Z,2.50
2023-01-23T22:31:14.315Z,2.80
2023-01-23T22:33:45.452Z,2.60
2023-01-23T22:36:17.819Z,2.80
2023-01-23T22:38:50.817Z,2.40
2023-01-23T22:41:18.605Z,2.20
2023-01-23T22:43:45.773Z,2.23
2023-01-23T22:46:16.838Z,2.67
2023-01-23T22:48:44.357Z,2.67
2023-01-23T22:51:20.837Z,2.50
2023-01-23T22:53:48.942Z,2.60
2023-01-23T22:56:16.252Z,5.43
2023-01-23T22:58:49.519Z,8.43
2023-01-23T23:01:18.182Z,7.87
2023-01-23T23:03:49.800Z,7.50
2023-01-23T23:06:20.801Z,5.77
2023-01-23T23:08:48.890Z,4.20
2023-01-23T23:11:24.360Z,3.70
2023-01-23T23:13:52.690Z,3.17
2023-01-23T23:16:30.254Z,3.50
2023-01-23T23:19:01.248Z,3.20
2023-01-23T23:21:34.256Z,3.20
2023-01-23T23:24:03.364Z,3.80
2023-01-23T23:26:32.043Z,3.27
2023-01-23T23:29:01.306Z,3.50
2023-01-23T23:31:29.089Z,3.10
2023-01-23T23:33:56.502Z,3.03
2023-01-23T23:36:24.277Z,2.60
2023-01-23T23:38:51.550Z,2.80
2023-01-23T23:41:19.308Z,2.73
2023-01-23T23:43:46.591Z,3.40
2023-01-23T23:46:15.425Z,2.77
2023-01-23T23:48:43.169Z,3.00
2023-01-23T23:51:15.624Z,2.70
2023-01-23T23:53:43.312Z,3.13
2023-01-23T23:56:20.133Z,2.40
2023-01-23T23:58:47.587Z,2.80
